Time;durP1;ratioP1;P1;durP2;ratioP2;P2;SDS_P1;SDS_P2;PMS_P1;PMS_P2;Temp;Humidity;BMP_temperature;BMP_pressure;BME280_temperature;BME280_humidity;BME280_pressure;Samples;Min_cycle;Max_cycle;Signal;HPM_P1;HPM_P2
2023/09/16 00:02:49;;;;;;;7.75;7.15;;;15.60;99.90;;;16.43;97.74;97808.38;10310295;28;20761;-79
2023/09/16 00:07:53;;;;;;;7.07;6.57;;;15.60;99.90;;;16.36;97.81;97801.25;10321051;28;20234;-79
2023/09/16 00:12:57;;;;;;;7.20;6.70;;;15.50;99.90;;;16.29;98.54;97800.19;10318970;28;20250;-78
2023/09/16 00:18:00;;;;;;;7.63;7.03;;;15.50;99.90;;;16.28;98.60;97797.53;10313169;28;20238;-76
2023/09/16 00:23:06;;;;;;;7.10;6.50;;;15.40;99.90;;;16.15;99.39;97810.03;10321240;28;20231;-78
2023/09/16 00:28:09;;;;;;;7.15;6.55;;;15.30;99.90;;;16.25;99.17;97807.75;10317571;28;20659;-78
2023/09/16 00:33:12;;;;;;;7.35;6.75;;;15.40;99.90;;;16.14;98.55;97803.13;10319523;28;20230;-76
2023/09/16 00:38:17;;;;;;;6.88;6.28;;;15.30;99.90;;;16.15;98.32;97799.72;10321477;28;20648;-78
2023/09/16 00:43:20;;;;;;;7.75;7.15;;;15.30;99.90;;;15.89;100.00;97800.53;10317887;28;20227;-79
2023/09/16 00:48:24;;;;;;;8.02;7.32;;;15.10;99.90;;;15.88;100.00;97785.84;10318455;28;20266;-78
2023/09/16 00:53:28;;;;;;;8.88;7.97;;;15.10;99.90;;;15.84;100.00;97784.88;10318722;28;20297;-77
2023/09/16 00:58:34;;;;;;;8.18;7.47;;;15.00;99.90;;;15.91;100.00;97780.81;10318137;28;20338;-78
2023/09/16 01:03:37;;;;;;;8.57;7.88;;;15.10;99.90;;;15.79;100.00;97777.81;10314320;28;20285;-77
2023/09/16 01:08:44;;;;;;;7.97;7.38;;;15.10;99.90;;;15.95;100.00;97783.56;10319753;28;20230;-78
2023/09/16 01:13:50;;;;;;;8.30;7.60;;;15.10;99.90;;;15.82;100.00;97780.50;10316874;28;20261;-77
2023/09/16 01:19:12;;;;;;;8.82;7.93;;;15.10;99.90;;;15.87;100.00;97789.25;10316442;28;20231;-77
2023/09/16 01:24:18;;;;;;;8.30;7.60;;;15.00;99.90;;;15.72;100.00;97789.59;10317876;28;20274;-77
2023/09/16 01:29:24;;;;;;;8.43;7.72;;;15.00;99.90;;;15.77;100.00;97785.50;10318504;28;20593;-77
2023/09/16 01:34:40;;;;;;;8.10;7.40;;;15.00;99.90;;;15.65;100.00;97790.16;10316692;28;20676;-79
2023/09/16 01:39:49;;;;;;;8.18;7.47;;;14.90;99.90;;;15.66;100.00;97789.38;10314084;28;20754;-79
2023/09/16 01:44:55;;;;;;;8.15;7.50;;;14.90;99.90;;;15.67;100.00;97791.09;10316260;28;20219;-79
2023/09/16 01:49:58;;;;;;;8.07;7.47;;;14.90;99.90;;;15.71;100.00;97793.88;10316300;28;20873;-77
2023/09/16 01:55:01;;;;;;;8.65;7.95;;;14.80;99.90;;;15.68;100.00;97796.38;10312959;28;20985;-78
2023/09/16 02:00:08;;;;;;;8.77;8.18;;;14.80;99.90;;;15.70;100.00;97791.25;10314164;28;20230;-77
2023/09/16 02:05:12;;;;;;;8.60;7.90;;;14.80;99.90;;;15.71;100.00;97800.75;10312765;28;20661;-78
2023/09/16 02:10:15;;;;;;;8.15;7.53;;;14.80;99.90;;;15.64;100.00;97803.88;10312843;28;20618;-77
2023/09/16 02:15:20;;;;;;;8.50;7.85;;;14.80;99.90;;;15.52;100.00;97804.31;10314660;28;20317;-80
2023/09/16 02:20:23;;;;;;;8.18;7.55;;;14.70;99.90;;;15.43;100.00;97802.28;10314771;28;20234;-80
2023/09/16 02:25:27;;;;;;;8.75;7.90;;;14.60;99.90;;;15.34;100.00;97801.94;10316733;28;20230;-80
2023/09/16 02:30:31;;;;;;;7.68;7.15;;;14.50;99.90;;;15.35;100.00;97805.38;10310623;28;20399;-80
2023/09/16 02:35:39;;;;;;;7.25;6.68;;;14.50;99.90;;;15.23;100.00;97806.69;10313154;28;20294;-79
2023/09/16 02:40:43;;;;;;;8.48;7.78;;;14.40;99.90;;;15.20;100.00;97805.69;10318074;28;20238;-78
2023/09/16 02:45:47;;;;;;;8.13;7.43;;;14.50;99.90;;;15.28;100.00;97818.03;10312008;28;20277;-78
2023/09/16 02:50:51;;;;;;;7.80;7.20;;;14.50;99.90;;;15.17;100.00;97821.91;10311409;28;20246;-77
2023/09/16 02:55:55;;;;;;;8.35;7.65;;;14.40;99.90;;;15.23;100.00;97816.09;10320094;28;20238;-77
2023/09/16 03:01:00;;;;;;;10.05;9.15;;;14.40;99.90;;;15.29;100.00;97827.50;10321130;28;20223;-79
2023/09/16 03:06:04;;;;;;;8.32;7.63;;;14.30;99.90;;;15.24;100.00;97829.03;10314074;28;20263;-78
2023/09/16 03:11:07;;;;;;;8.52;7.70;;;14.40;99.90;;;15.05;100.00;97826.56;10321850;28;20226;-78
2023/09/16 03:16:18;;;;;;;8.23;7.63;;;14.30;99.90;;;15.14;100.00;97826.94;10317751;28;20227;-76
2023/09/16 03:21:25;;;;;;;8.43;7.72;;;14.30;99.90;;;15.08;100.00;97829.28;10314107;28;20230;-79
2023/09/16 03:26:28;;;;;;;8.40;7.60;;;14.20;99.90;;;15.07;100.00;97836.09;10328960;28;20281;-79
2023/09/16 03:31:33;;;;;;;7.47;6.93;;;14.20;99.90;;;15.09;100.00;97831.03;10322607;28;20318;-78
2023/09/16 03:36:36;;;;;;;8.05;7.32;;;14.30;99.90;;;15.10;100.00;97835.34;10326175;28;20231;-78
2023/09/16 03:41:39;;;;;;;8.52;7.82;;;14.20;99.90;;;14.87;100.00;97832.75;10321345;28;20239;-79
2023/09/16 03:46:44;;;;;;;8.70;7.97;;;14.10;99.90;;;14.86;100.00;97825.84;10319884;28;20289;-79
2023/09/16 03:51:47;;;;;;;9.93;9.13;;;14.10;99.90;;;14.77;100.00;97830.63;10322162;28;20242;-78
2023/09/16 03:56:51;;;;;;;12.77;11.68;;;14.00;99.90;;;14.82;100.00;97818.84;10320216;28;20230;-79
2023/09/16 04:01:55;;;;;;;10.10;9.27;;;14.00;99.90;;;14.81;100.00;97819.63;10308321;28;20305;-78
2023/09/16 04:06:59;;;;;;;11.15;10.25;;;14.00;99.90;;;14.82;100.00;97818.84;10308426;28;20223;-76
2023/09/16 04:12:03;;;;;;;9.57;8.77;;;14.10;99.90;;;14.76;100.00;97816.00;10310408;28;20231;-78
2023/09/16 04:17:08;;;;;;;8.73;8.13;;;14.00;99.90;;;14.94;100.00;97817.56;10313227;28;20367;-76
2023/09/16 04:22:11;;;;;;;9.05;8.35;;;14.10;99.90;;;14.93;100.00;97800.34;10311445;28;20322;-79
2023/09/16 04:27:14;;;;;;;8.50;7.80;;;14.10;99.90;;;14.87;100.00;97796.72;10310874;28;20286;-79
2023/09/16 04:32:19;;;;;;;8.43;7.82;;;14.10;99.90;;;14.87;100.00;97791.56;10310792;28;20231;-77
2023/09/16 04:37:22;;;;;;;9.38;8.68;;;14.10;99.90;;;14.86;100.00;97791.53;10313984;28;20258;-79
2023/09/16 04:42:30;;;;;;;8.98;8.27;;;14.00;99.90;;;14.81;100.00;97785.31;10317053;28;20255;-78
2023/09/16 04:47:34;;;;;;;9.30;8.60;;;14.00;99.90;;;14.63;100.00;97780.31;10310928;28;20231;-78
2023/09/16 04:52:38;;;;;;;9.82;9.13;;;13.90;99.90;;;14.65;100.00;97781.28;10310744;28;20226;-78
2023/09/16 04:57:41;;;;;;;9.73;9.02;;;13.90;99.90;;;14.60;100.00;97775.06;10310061;28;20250;-79
2023/09/16 05:02:48;;;;;;;10.93;10.02;;;13.90;99.90;;;14.70;100.00;97772.00;10319715;28;20219;-78
2023/09/16 05:07:51;;;;;;;11.15;10.05;;;13.90;99.90;;;14.70;100.00;97777.16;10338498;28;20238;-80
2023/09/16 05:12:55;;;;;;;11.70;10.55;;;14.00;99.90;;;14.80;100.00;97771.56;10327978;28;20234;-80
2023/09/16 05:18:04;;;;;;;11.65;10.65;;;14.10;99.90;;;14.96;100.00;97769.56;10312775;28;20319;-79
2023/09/16 05:23:08;;;;;;;11.68;10.60;;;14.20;99.90;;;14.93;100.00;97774.59;10309926;28;20247;-77
2023/09/16 05:28:11;;;;;;;12.43;11.32;;;14.20;99.90;;;14.79;100.00;97762.09;10309478;28;20235;-78
2023/09/16 05:33:16;;;;;;;11.38;10.27;;;14.10;99.90;;;14.93;100.00;97759.16;10318111;28;20230;-78
2023/09/16 05:38:19;;;;;;;11.70;10.70;;;14.20;99.90;;;15.00;100.00;97767.19;10335658;28;20227;-78
2023/09/16 05:43:24;;;;;;;11.98;10.88;;;14.30;99.90;;;15.17;100.00;97764.38;10308864;28;20329;-76
2023/09/16 05:48:28;;;;;;;11.60;10.48;;;14.50;99.90;;;15.77;100.00;97765.75;10320311;28;20235;-78
2023/09/16 05:53:33;;;;;;;10.55;9.65;;;15.00;99.90;;;16.31;100.00;97767.59;10324639;28;20227;-79
2023/09/16 05:58:36;;;;;;;9.50;8.75;;;15.50;99.90;;;16.74;98.03;97765.47;10313755;28;20317;-80
2023/09/16 06:03:41;;;;;;;10.13;9.13;;;15.80;99.90;;;17.08;95.75;97767.41;10306191;28;20235;-78
2023/09/16 06:08:44;;;;;;;9.80;8.88;;;16.30;99.90;;;17.11;94.03;97755.50;10305807;28;20238;-77
2023/09/16 06:13:47;;;;;;;9.73;8.93;;;16.30;99.90;;;17.27;94.20;97761.09;10311646;28;20288;-79
2023/09/16 06:18:52;;;;;;;9.13;8.32;;;16.40;99.90;;;17.78;90.48;97753.09;10300956;28;20266;-78
2023/09/16 06:23:55;;;;;;;8.90;8.20;;;16.60;99.90;;;18.50;86.64;97762.69;10308148;28;20250;-80
2023/09/16 06:28:59;;;;;;;9.55;8.75;;;17.00;99.90;;;18.88;84.01;97761.03;10312487;28;20227;-80
2023/09/16 06:34:05;;;;;;;8.30;7.60;;;17.60;99.90;;;19.62;82.23;97767.78;10308959;28;20285;-79
2023/09/16 06:39:11;;;;;;;9.82;8.82;;;18.20;99.90;;;20.18;77.76;97774.94;10309314;28;20233;-80
2023/09/16 06:44:14;;;;;;;8.65;7.95;;;18.80;99.90;;;20.77;74.81;97762.06;10311067;28;20965;-78
2023/09/16 06:49:19;;;;;;;9.02;8.23;;;19.40;99.90;;;21.50;73.20;97764.84;10305499;28;20314;-80
2023/09/16 06:54:22;;;;;;;8.73;8.02;;;19.90;99.90;;;22.28;68.36;97770.03;10311550;28;20234;-80
2023/09/16 06:59:27;;;;;;;8.80;8.00;;;20.50;99.90;;;22.89;64.49;97775.78;10307610;28;20286;-79
2023/09/16 07:04:31;;;;;;;8.45;7.75;;;20.80;99.90;;;23.42;63.76;97765.66;10313097;28;20276;-81
2023/09/16 07:09:35;;;;;;;8.70;7.95;;;21.20;99.90;;;23.05;64.54;97765.47;10312780;28;20797;-81
2023/09/16 07:14:39;;;;;;;8.27;7.65;;;21.40;99.90;;;23.15;64.36;97767.28;10298684;28;20997;-79
2023/09/16 07:19:44;;;;;;;7.93;7.32;;;21.90;99.90;;;23.36;64.42;97762.16;10299563;28;20230;-79
2023/09/16 07:24:47;;;;;;;8.30;7.60;;;22.20;99.90;;;23.33;63.78;97772.56;10306546;28;20314;-82
2023/09/16 07:29:50;;;;;;;8.77;8.07;;;22.10;99.90;;;23.41;63.19;97770.00;10304709;28;20235;-80
2023/09/16 07:34:55;;;;;;;8.38;7.68;;;22.40;99.90;;;23.51;62.43;97761.34;10294411;28;20697;-81
2023/09/16 07:39:58;;;;;;;8.68;7.97;;;22.50;99.90;;;23.60;62.36;97765.72;10299476;28;20246;-81
2023/09/16 07:45:01;;;;;;;8.10;7.40;;;22.70;99.90;;;23.96;62.08;97770.22;10299492;28;20251;-80
2023/09/16 07:50:07;;;;;;;7.80;7.18;;;23.00;99.90;;;24.34;61.07;97765.94;10309640;28;20286;-81
2023/09/16 07:55:11;;;;;;;7.32;6.78;;;23.40;99.90;;;24.49;61.17;97761.66;10301821;28;20245;-82
2023/09/16 08:00:15;;;;;;;6.90;6.40;;;23.70;99.90;;;24.81;60.05;97762.47;10322125;28;21150;-82
2023/09/16 08:05:20;;;;;;;6.90;6.35;;;24.10;99.90;;;24.93;59.95;97757.25;10310594;28;20634;-79
2023/09/16 08:10:23;;;;;;;7.70;7.10;;;24.30;99.90;;;25.14;58.13;97766.81;10312471;28;20238;-80
2023/09/16 08:15:26;;;;;;;7.80;7.20;;;24.40;99.90;;;25.10;58.79;97775.53;10317476;28;20238;-80
2023/09/16 08:20:31;;;;;;;7.75;7.10;;;24.30;99.90;;;25.45;57.73;97770.22;10322121;28;20227;-80
2023/09/16 08:25:34;;;;;;;7.28;6.68;;;24.90;99.90;;;25.62;57.25;97768.41;10315924;28;20250;-79
2023/09/16 08:30:37;;;;;;;7.25;6.72;;;24.90;99.90;;;25.76;57.53;97768.34;10322934;28;20218;-79
2023/09/16 08:35:43;;;;;;;8.07;7.38;;;25.30;99.90;;;25.35;58.02;97771.13;10324072;28;20222;-80
2023/09/16 08:40:53;;;;;;;7.65;7.05;;;24.80;99.90;;;25.83;56.48;97770.06;10317176;28;20744;-78
2023/09/16 08:46:02;;;;;;;7.30;6.70;;;25.10;99.90;;;26.29;55.53;97769.78;10321225;28;20317;-78
2023/09/16 08:51:10;;;;;;;6.32;5.82;;;25.60;99.90;;;26.17;55.37;97769.03;10316058;28;20230;-77
2023/09/16 08:56:15;;;;;;;7.53;6.90;;;25.50;99.90;;;26.22;54.91;97769.88;10318099;28;20226;-77
2023/09/16 09:01:19;;;;;;;6.47;5.97;;;25.60;99.90;;;26.19;55.44;97768.13;10307775;28;20230;-78
2023/09/16 09:06:25;;;;;;;5.95;5.47;;;25.60;99.90;;;26.68;54.31;97767.78;10298341;28;20345;-77
2023/09/16 09:11:43;;;;;;;6.68;6.18;;;26.20;99.90;;;26.66;53.70;97769.53;10298606;28;20326;-77
2023/09/16 09:16:49;;;;;;;6.28;5.88;;;26.20;99.90;;;26.85;53.92;97769.41;10315924;28;20238;-82
2023/09/16 09:21:57;;;;;;;6.68;6.07;;;26.30;99.90;;;27.13;52.71;97777.88;10307238;28;20273;-80
2023/09/16 09:27:01;;;;;;;6.18;5.68;;;26.70;98.90;;;27.27;53.19;97768.13;10302685;28;20237;-78
2023/09/16 09:32:05;;;;;;;5.70;5.20;;;26.70;99.40;;;27.32;52.64;97768.06;10311335;28;20843;-80
2023/09/16 09:37:16;;;;;;;6.68;6.18;;;26.80;98.90;;;27.20;52.54;97766.44;10318752;28;20656;-80
2023/09/16 09:42:21;;;;;;;6.00;5.50;;;26.60;98.80;;;27.22;51.62;97771.69;10332850;28;20230;-79
2023/09/16 09:47:24;;;;;;;6.00;5.60;;;26.70;98.20;;;27.13;53.30;97776.13;10329625;28;20811;-79
2023/09/16 09:52:30;;;;;;;5.20;4.90;;;26.60;99.10;;;27.42;49.91;97771.47;10333840;28;20668;-79
2023/09/16 09:57:34;;;;;;;5.65;5.25;;;26.90;97.00;;;27.56;49.06;97766.91;10328473;28;20292;-80
2023/09/16 10:02:40;;;;;;;5.78;5.28;;;27.10;96.40;;;27.24;51.59;97760.25;10325635;28;20325;-80
2023/09/16 10:07:46;;;;;;;5.25;4.85;;;26.70;97.60;;;27.81;47.65;97757.88;10335014;28;20232;-79
2023/09/16 10:12:51;;;;;;;5.30;4.90;;;27.30;95.40;;;27.78;47.98;97754.38;10330242;28;20229;-80
2023/09/16 10:17:56;;;;;;;5.15;4.75;;;27.20;95.50;;;28.09;49.05;97752.22;10330208;28;20235;-81
2023/09/16 10:23:01;;;;;;;5.15;4.82;;;27.60;95.80;;;28.03;48.10;97745.28;10324342;28;20664;-80
2023/09/16 10:28:06;;;;;;;5.38;4.97;;;27.70;95.60;;;28.06;48.16;97745.25;10328717;28;20318;-81
2023/09/16 10:33:12;;;;;;;4.93;4.63;;;27.60;95.30;;;28.09;48.61;97733.81;10323455;28;20218;-78
2023/09/16 10:38:17;;;;;;;5.68;5.18;;;27.80;95.00;;;27.98;48.65;97731.34;10332767;28;20236;-81
2023/09/16 10:43:20;;;;;;;5.10;4.70;;;27.40;95.20;;;28.23;46.80;97737.09;10329029;28;20284;-78
2023/09/16 10:48:23;;;;;;;5.22;4.82;;;27.80;94.40;;;28.22;48.04;97732.75;10319608;28;20342;-81
2023/09/16 10:53:36;;;;;;;5.13;4.63;;;27.80;94.60;;;28.19;48.19;97729.31;10339348;28;20276;-77
2023/09/16 10:58:46;;;;;;;5.00;4.60;;;27.80;95.10;;;28.49;47.80;97727.97;10325593;28;20230;-78
2023/09/16 11:03:59;;;;;;;4.70;4.40;;;28.00;94.50;;;28.49;47.06;97727.97;10335057;28;20230;-78
2023/09/16 11:09:05;;;;;;;4.68;4.38;;;28.00;94.00;;;28.44;47.38;97727.16;10329062;28;20227;-81
2023/09/16 11:14:10;;;;;;;4.35;4.05;;;27.90;94.60;;;28.54;47.09;97726.13;10321766;28;20237;-79
2023/09/16 11:19:19;;;;;;;4.68;4.28;;;28.10;93.80;;;28.20;47.44;97724.00;10326870;28;20230;-80
2023/09/16 11:24:24;;;;;;;4.40;4.00;;;27.70;94.20;;;28.25;46.70;97723.94;10320227;28;20318;-78
2023/09/16 11:29:31;;;;;;;3.92;3.63;;;27.70;93.50;;;28.12;46.60;97715.38;10309670;28;20226;-78
2023/09/16 11:34:34;;;;;;;4.30;4.00;;;27.50;93.90;;;28.34;45.42;97702.75;10306349;28;20849;-80
2023/09/16 11:39:43;;;;;;;3.40;3.10;;;27.80;93.10;;;28.40;43.73;97707.06;10308879;28;20223;-77
2023/09/16 11:44:46;;;;;;;3.33;3.13;;;27.90;91.60;;;28.18;45.09;97707.38;10308322;28;20230;-79
2023/09/16 11:49:50;;;;;;;3.30;3.10;;;27.60;92.60;;;28.45;43.73;97705.25;10307046;28;20321;-78
2023/09/16 11:54:56;;;;;;;3.60;3.30;;;27.80;91.80;;;28.54;43.70;97694.56;10322479;28;20210;-79
2023/09/16 11:59:59;;;;;;;3.60;3.40;;;28.00;91.60;;;28.25;45.29;97695.88;10318243;28;20222;-77
2023/09/16 12:05:03;;;;;;;3.15;2.95;;;27.60;92.30;;;28.48;43.62;97692.91;10315861;28;20273;-79
2023/09/16 12:10:10;;;;;;;3.40;3.20;;;27.70;91.50;;;28.35;44.42;97690.47;10315318;28;20245;-79
2023/09/16 12:15:13;;;;;;;3.28;3.08;;;27.60;91.80;;;28.54;42.55;97670.91;10310892;28;20237;-79
2023/09/16 12:20:17;;;;;;;3.38;3.08;;;27.80;90.90;;;28.31;44.02;97671.25;10304207;28;20258;-78
2023/09/16 12:25:22;;;;;;;3.50;3.30;;;27.60;91.20;;;28.48;43.56;97660.50;10320763;28;20296;-77
2023/09/16 12:30:25;;;;;;;3.70;3.40;;;27.70;91.10;;;28.57;43.54;97662.09;10316685;28;20310;-81
2023/09/16 12:35:29;;;;;;;3.15;2.95;;;27.80;91.30;;;28.55;43.01;97658.59;10305847;28;20226;-79
2023/09/16 12:40:34;;;;;;;3.30;3.10;;;27.90;90.70;;;28.19;43.07;97656.56;10309516;28;20672;-80
2023/09/16 12:45:39;;;;;;;3.13;2.92;;;27.70;90.50;;;28.18;44.08;97648.69;10306986;28;20214;-78
2023/09/16 12:50:42;;;;;;;3.78;3.47;;;27.60;90.90;;;28.14;43.70;97642.63;10319933;28;20587;-79
2023/09/16 12:55:51;;;;;;;3.28;3.08;;;27.50;90.90;;;28.19;44.70;97656.56;10335699;28;20261;-80
2023/09/16 13:00:54;;;;;;;3.38;3.08;;;27.60;91.20;;;28.60;43.97;97652.38;10328958;28;20333;-78
2023/09/16 13:05:58;;;;;;;3.13;2.88;;;27.90;91.10;;;28.68;42.69;97639.94;10329011;28;20753;-78
2023/09/16 13:11:03;;;;;;;3.22;3.00;;;28.00;90.60;;;28.73;42.50;97635.47;10336670;28;20218;-77
2023/09/16 13:16:07;;;;;;;3.38;3.10;;;28.00;90.40;;;28.47;41.61;97629.81;10334639;28;20230;-79
2023/09/16 13:21:11;;;;;;;3.50;3.30;;;27.80;89.30;;;28.23;42.87;97626.69;10328789;28;20227;-77
2023/09/16 13:26:16;;;;;;;3.65;3.35;;;27.60;90.30;;;28.25;43.32;97614.38;10329190;28;20270;-79
2023/09/16 13:31:22;;;;;;;3.15;2.95;;;27.50;90.80;;;28.55;42.31;97617.38;10336842;28;20226;-78
2023/09/16 13:36:27;;;;;;;3.20;3.00;;;27.80;90.60;;;28.61;42.72;97612.00;10330060;28;20260;-79
2023/09/16 13:41:32;;;;;;;3.60;3.40;;;27.90;90.40;;;28.76;42.88;97610.88;10334347;28;20272;-80
2023/09/16 13:46:35;;;;;;;3.40;3.20;;;28.00;90.50;;;28.82;42.43;97604.63;10325767;28;20615;-78
2023/09/16 13:51:39;;;;;;;3.85;3.60;;;28.10;90.20;;;28.93;42.18;97611.41;10332390;28;20231;-76
2023/09/16 13:56:44;;;;;;;3.78;3.53;;;28.20;89.80;;;28.87;41.58;97608.00;10320884;28;20242;-78
2023/09/16 14:01:47;;;;;;;3.50;3.30;;;28.20;89.60;;;28.93;41.35;97615.75;10335624;28;20584;-80
2023/09/16 14:06:50;;;;;;;3.60;3.30;;;28.30;88.40;;;28.78;41.50;97611.69;10333136;28;20317;-79
2023/09/16 14:11:56;;;;;;;3.75;3.45;;;28.00;88.70;;;28.75;42.05;97615.22;10336058;28;20228;-79
2023/09/16 14:17:00;;;;;;;3.75;3.45;;;28.00;89.60;;;28.70;42.76;97605.69;10329992;28;20234;-78
2023/09/16 14:22:03;;;;;;;3.97;3.67;;;28.00;89.90;;;28.50;43.45;97598.19;10331236;28;20227;-79
2023/09/16 14:27:08;;;;;;;3.90;3.60;;;27.70;90.70;;;28.56;42.54;97608.63;10332849;28;20246;-80
2023/09/16 14:32:11;;;;;;;3.40;3.20;;;27.80;89.80;;;28.76;42.13;97610.88;10333106;28;20687;-80
2023/09/16 14:37:15;;;;;;;3.22;3.03;;;28.00;89.00;;;28.69;41.18;97609.22;10330944;28;20229;-80
2023/09/16 14:42:20;;;;;;;3.08;2.88;;;28.10;87.00;;;28.65;41.01;97608.44;10326215;28;20223;-80
2023/09/16 14:47:23;;;;;;;3.50;3.30;;;27.90;87.80;;;28.73;41.33;97601.25;10332761;28;20266;-80
2023/09/16 14:52:27;;;;;;;3.75;3.55;;;28.00;88.10;;;28.46;43.22;97599.16;10332011;28;20230;-79
2023/09/16 14:57:31;;;;;;;3.40;3.20;;;27.70;90.50;;;28.41;43.13;97599.19;10328154;28;20297;-79
2023/09/16 15:02:35;;;;;;;3.60;3.40;;;27.50;90.60;;;28.28;43.73;97598.56;10331102;28;20226;-78
2023/09/16 15:07:39;;;;;;;4.00;3.60;;;27.50;90.60;;;28.16;44.30;97608.41;10326190;28;20253;-79
2023/09/16 15:12:43;;;;;;;4.40;4.10;;;27.30;91.10;;;27.94;44.00;97613.16;10333319;28;20231;-79
2023/09/16 15:17:47;;;;;;;4.00;3.70;;;27.20;90.90;;;27.97;44.51;97606.09;10323945;28;20231;-78
2023/09/16 15:22:50;;;;;;;4.13;3.83;;;27.30;91.30;;;28.14;44.15;97600.56;10333632;28;20277;-80
2023/09/16 15:27:55;;;;;;;4.00;3.70;;;27.40;90.70;;;28.42;44.41;97600.13;10338421;28;20230;-80
2023/09/16 15:32:58;;;;;;;4.32;3.88;;;27.60;91.00;;;28.30;44.97;97604.66;10334587;28;20226;-78
2023/09/16 15:38:02;;;;;;;4.25;3.95;;;27.40;91.70;;;28.09;45.56;97602.41;10340772;28;20231;-80
2023/09/16 15:43:08;;;;;;;4.05;3.80;;;27.30;91.90;;;27.97;45.62;97603.47;10343696;28;20230;-80
2023/09/16 15:48:11;;;;;;;4.53;3.78;;;27.20;92.20;;;27.93;46.13;97611.41;10334251;28;20237;-79
2023/09/16 15:53:15;;;;;;;3.67;3.47;;;27.10;92.60;;;27.92;46.81;97612.31;10335832;28;20594;-79
2023/09/16 15:58:20;;;;;;;4.28;3.97;;;27.10;92.60;;;27.84;47.29;97618.59;10330019;28;20281;-79
2023/09/16 16:03:27;;;;;;;4.57;4.22;;;27.00;93.00;;;27.75;48.29;97628.31;10334316;28;20746;-80
2023/09/16 16:08:31;;;;;;;4.85;4.55;;;27.00;93.50;;;27.70;48.61;97625.78;10337564;28;20250;-78
2023/09/16 16:13:36;;;;;;;5.03;4.53;;;26.90;93.80;;;27.71;49.23;97632.75;10332606;28;20230;-78
2023/09/16 16:18:39;;;;;;;4.43;4.13;;;26.90;94.70;;;27.56;50.00;97625.09;10333326;28;20258;-78
2023/09/16 16:23:42;;;;;;;4.40;4.10;;;26.70;95.00;;;27.52;50.68;97626.03;10333705;28;20311;-80
2023/09/16 16:28:47;;;;;;;4.47;4.18;;;26.70;95.50;;;27.48;51.08;97630.47;10330677;28;20316;-79
2023/09/16 16:33:51;;;;;;;4.90;4.60;;;26.60;96.00;;;27.43;51.67;97634.91;10328220;28;20238;-81
2023/09/16 16:38:55;;;;;;;5.15;4.78;;;26.50;96.80;;;27.36;52.56;97634.13;10329660;28;20237;-80
2023/09/16 16:44:00;;;;;;;5.00;4.50;;;26.40;97.60;;;27.27;54.13;97630.75;10340321;28;20231;-80
2023/09/16 16:49:04;;;;;;;4.53;4.22;;;26.30;98.40;;;27.10;54.32;97634.44;10335415;28;20283;-79
2023/09/16 16:54:08;;;;;;;5.72;5.22;;;26.10;98.70;;;26.98;54.48;97633.69;10341311;28;20265;-80
2023/09/16 16:59:13;;;;;;;6.07;5.68;;;26.00;98.90;;;26.87;55.43;97631.19;10333928;28;20235;-78
2023/09/16 17:04:16;;;;;;;5.57;5.18;;;25.90;99.30;;;26.74;55.86;97627.84;10334274;28;20742;-80
2023/09/16 17:09:19;;;;;;;5.28;4.82;;;25.70;99.80;;;26.70;57.08;97631.41;10338674;28;20231;-80
2023/09/16 17:14:24;;;;;;;5.93;5.43;;;25.60;99.90;;;26.42;58.96;97634.28;10332574;28;20254;-80
2023/09/16 17:19:28;;;;;;;5.03;4.63;;;25.40;99.90;;;26.20;60.08;97630.97;10336081;28;20230;-78
2023/09/16 17:24:32;;;;;;;5.10;4.70;;;25.20;99.90;;;26.00;61.58;97641.63;10337251;28;20622;-80
2023/09/16 17:29:36;;;;;;;5.63;5.13;;;24.90;99.90;;;25.74;62.86;97644.41;10334091;28;20237;-80
2023/09/16 17:34:39;;;;;;;6.05;5.05;;;24.70;99.90;;;25.55;64.05;97650.63;10337166;28;20215;-79
2023/09/16 17:39:43;;;;;;;5.70;5.30;;;24.50;99.90;;;25.37;65.67;97643.75;10341983;28;20239;-79
2023/09/16 17:44:47;;;;;;;5.93;5.53;;;24.30;99.90;;;25.23;66.66;97646.44;10326163;28;20774;-81
2023/09/16 17:49:52;;;;;;;5.57;5.25;;;24.20;99.90;;;25.16;66.87;97661.28;10329192;28;20261;-80
2023/09/16 17:54:56;;;;;;;6.18;5.63;;;24.10;99.90;;;24.99;68.28;97659.59;10342430;28;20245;-81
2023/09/16 18:00:01;;;;;;;6.07;5.57;;;24.00;99.90;;;24.72;69.60;97667.53;10335697;28;20238;-81
2023/09/16 18:05:05;;;;;;;5.70;5.30;;;23.80;99.90;;;24.59;70.65;97670.16;10342454;28;20221;-79
2023/09/16 18:10:10;;;;;;;5.85;5.40;;;23.60;99.90;;;24.49;71.08;97671.88;10337588;28;20317;-79
2023/09/16 18:15:15;;;;;;;5.97;5.57;;;23.50;99.90;;;24.33;71.71;97691.06;10346516;28;20226;-79
2023/09/16 18:20:21;;;;;;;6.13;5.63;;;23.30;99.90;;;24.14;73.46;97698.88;10349452;28;20234;-80
2023/09/16 18:25:24;;;;;;;6.50;5.80;;;23.10;99.90;;;24.06;74.57;97703.22;10333577;28;20281;-81
2023/09/16 18:30:29;;;;;;;6.22;5.72;;;23.00;99.90;;;23.85;75.01;97692.75;10325068;28;20234;-80
2023/09/16 18:35:32;;;;;;;5.78;5.28;;;22.80;99.90;;;23.66;75.69;97703.09;10327951;28;21664;-79
2023/09/16 18:40:35;;;;;;;5.63;5.22;;;22.70;99.90;;;23.56;76.35;97706.56;10337853;28;20239;-79
2023/09/16 18:45:40;;;;;;;7.10;6.40;;;22.60;99.90;;;23.36;76.98;97699.53;10332532;28;20314;-80
2023/09/16 18:50:44;;;;;;;7.00;6.32;;;22.40;99.90;;;23.09;78.72;97702.91;10328848;28;20313;-79
2023/09/16 18:55:47;;;;;;;7.15;6.65;;;22.20;99.90;;;22.85;80.68;97703.59;10336399;28;20250;-81
2023/09/16 19:00:52;;;;;;;6.65;6.15;;;22.00;99.90;;;22.66;81.19;97699.13;10331717;28;20234;-79
2023/09/16 19:05:55;;;;;;;7.07;6.57;;;21.80;99.90;;;22.48;82.46;97715.53;10321737;28;20232;-78
2023/09/16 19:10:59;;;;;;;6.50;5.97;;;21.70;99.90;;;22.49;82.19;97725.97;10327344;28;20259;-80
2023/09/16 19:16:04;;;;;;;6.18;5.78;;;21.60;99.90;;;22.39;82.76;97737.16;10332868;28;20234;-80
2023/09/16 19:21:07;;;;;;;6.95;6.45;;;21.50;99.90;;;22.34;82.93;97736.25;10327182;28;20253;-79
2023/09/16 19:26:10;;;;;;;7.65;7.03;;;21.50;99.90;;;22.28;82.80;97723.16;10331348;28;20230;-79
2023/09/16 19:31:15;;;;;;;7.40;6.80;;;21.30;99.90;;;22.19;83.15;97734.38;10334632;28;20250;-79
2023/09/16 19:36:19;;;;;;;7.68;6.97;;;21.30;99.90;;;22.11;83.61;97736.00;10331713;28;20226;-80
2023/09/16 19:41:22;;;;;;;7.43;6.93;;;21.20;99.90;;;22.07;83.90;97743.78;10332464;28;20262;-79
2023/09/16 19:46:27;;;;;;;7.15;6.45;;;21.10;99.90;;;21.90;85.10;97752.28;10335507;28;20317;-78
2023/09/16 19:51:38;;;;;;;7.53;6.93;;;21.00;99.90;;;21.79;85.41;97751.31;10325086;28;20333;-78
2023/09/16 19:56:42;;;;;;;8.00;7.40;;;20.80;99.90;;;21.71;86.08;97755.53;10324543;28;20250;-78
2023/09/16 20:02:06;;;;;;;7.30;6.80;;;20.80;99.90;;;21.62;86.28;97739.84;10330362;28;20226;-79
2023/09/16 20:07:10;;;;;;;7.78;7.13;;;20.70;99.90;;;21.50;86.68;97736.22;10338278;28;20293;-78
2023/09/16 20:12:13;;;;;;;7.47;6.93;;;20.50;99.90;;;21.41;86.85;97740.47;10331673;28;20251;-77
2023/09/16 20:17:18;;;;;;;8.13;7.38;;;20.40;99.90;;;21.40;86.85;97749.97;10341964;28;20255;-79
2023/09/16 20:22:22;;;;;;;8.05;7.45;;;20.40;99.90;;;21.18;87.68;97745.34;10335401;28;20231;-79
2023/09/16 20:27:25;;;;;;;8.55;7.82;;;20.20;99.90;;;21.07;87.86;97743.44;10341853;28;20447;-78
2023/09/16 20:32:29;;;;;;;7.75;7.15;;;20.20;99.90;;;21.07;87.93;97746.06;10334147;28;20294;-78
2023/09/16 20:37:33;;;;;;;8.27;7.63;;;20.10;99.90;;;21.03;88.13;97754.69;10338811;28;20243;-79
2023/09/16 20:42:36;;;;;;;8.85;8.02;;;20.10;99.90;;;21.04;88.17;97756.41;10333903;28;20315;-80
2023/09/16 20:47:41;;;;;;;8.75;8.00;;;20.10;99.90;;;20.98;89.09;97761.53;10321173;28;20230;-80
2023/09/16 20:52:44;;;;;;;9.00;8.10;;;20.00;99.90;;;20.96;89.20;97771.03;10314485;28;20842;-80
2023/09/16 20:57:47;;;;;;;8.52;7.78;;;20.00;99.90;;;20.84;89.87;97769.13;10319916;28;20236;-85
2023/09/16 21:02:52;;;;;;;9.50;7.55;;;19.90;99.90;;;20.81;89.65;97769.06;10332492;28;20813;-85